createdAt,value
2022-08-29T00:00:18.515Z,39.83
2022-08-29T00:02:49.892Z,39.89
2022-08-29T00:05:22.258Z,40.08
2022-08-29T00:07:53.829Z,39.74
2022-08-29T00:10:22.691Z,39.88
2022-08-29T00:12:51.857Z,39.24
2022-08-29T00:15:21.426Z,39.47
2022-08-29T00:17:50.333Z,39.32
2022-08-29T00:20:30.321Z,39.43
2022-08-29T00:23:03.267Z,39.12
2022-08-29T00:25:32.316Z,39.22
2022-08-29T00:28:01.125Z,39.07
2022-08-29T00:30:29.863Z,39.31
2022-08-29T00:32:58.689Z,39.35
2022-08-29T00:35:31.498Z,39.59
2022-08-29T00:38:01.022Z,40.19
2022-08-29T00:40:33.737Z,39.77
2022-08-29T00:43:02.414Z,40.01
2022-08-29T00:45:32.389Z,39.96
2022-08-29T00:48:06.379Z,39.99
2022-08-29T00:50:40.728Z,39.86
2022-08-29T00:53:13.347Z,39.86
2022-08-29T00:55:42.726Z,40.21
2022-08-29T00:58:24.830Z,40.01
2022-08-29T01:00:53.868Z,40.01
2022-08-29T01:03:22.760Z,40.23
2022-08-29T01:05:52.968Z,40.18
2022-08-29T01:08:21.548Z,40.07
2022-08-29T01:11:07.645Z,40.22
2022-08-29T01:13:41.895Z,40.18
2022-08-29T01:16:12.140Z,40.02
2022-08-29T01:18:44.155Z,39.81
2022-08-29T01:21:21.421Z,39.88
2022-08-29T01:23:59.795Z,39.96
2022-08-29T01:26:31.748Z,39.91
2022-08-29T01:29:00.596Z,39.72
2022-08-29T01:31:56.329Z,39.78
2022-08-29T01:34:28.232Z,39.94
2022-08-29T01:36:58.265Z,40.14
2022-08-29T01:39:30.630Z,40.40
2022-08-29T01:42:02.220Z,40.31
2022-08-29T01:44:30.788Z,40.14
2022-08-29T01:47:03.182Z,40.69
2022-08-29T01:49:35.153Z,40.60
2022-08-29T01:52:08.234Z,40.30
2022-08-29T01:54:37.086Z,40.61
2022-08-29T01:57:12.214Z,40.80
2022-08-29T01:59:41.839Z,40.79
2022-08-29T02:02:16.191Z,40.47
2022-08-29T02:04:46.182Z,40.63
2022-08-29T02:07:17.656Z,40.42
2022-08-29T02:09:47.054Z,40.71
2022-08-29T02:12:17.692Z,40.76
2022-08-29T02:14:46.646Z,40.60
2022-08-29T02:17:15.144Z,40.59
2022-08-29T02:19:44.258Z,40.82
2022-08-29T02:22:12.995Z,40.79
2022-08-29T02:24:41.799Z,40.69
2022-08-29T02:27:12.744Z,40.69
2022-08-29T02:29:42.821Z,40.83
2022-08-29T02:32:14.544Z,40.98
2022-08-29T02:34:47.782Z,41.11
2022-08-29T02:37:17.707Z,41.37
2022-08-29T02:39:46.245Z,41.45
2022-08-29T02:42:14.719Z,40.91
2022-08-29T02:44:45.081Z,40.98
2022-08-29T02:47:14.541Z,40.47
2022-08-29T02:49:43.906Z,40.26
2022-08-29T02:52:13.042Z,40.31
2022-08-29T02:54:41.707Z,40.30
2022-08-29T02:57:10.109Z,40.08
2022-08-29T02:59:38.536Z,39.83
2022-08-29T03:02:08.443Z,39.57
2022-08-29T03:04:36.930Z,39.46
2022-08-29T03:07:06.478Z,39.49
2022-08-29T03:09:34.985Z,39.56
2022-08-29T03:12:03.553Z,39.36
2022-08-29T03:14:32.043Z,39.55
2022-08-29T03:17:00.551Z,39.46
2022-08-29T03:19:30.513Z,39.23
2022-08-29T03:22:00.580Z,39.59
2022-08-29T03:24:29.676Z,39.66
2022-08-29T03:26:58.848Z,39.47
2022-08-29T03:29:27.379Z,39.74
2022-08-29T03:31:58.619Z,39.75
2022-08-29T03:34:28.641Z,39.74
2022-08-29T03:36:58.545Z,39.63
2022-08-29T03:39:27.311Z,39.42
2022-08-29T03:41:55.760Z,39.41
2022-08-29T03:44:24.522Z,39.42
2022-08-29T03:46:54.644Z,39.56
2022-08-29T03:49:23.043Z,39.74
2022-08-29T03:51:51.457Z,39.53
2022-08-29T03:54:21.591Z,39.53
2022-08-29T03:56:50.814Z,39.34
2022-08-29T03:59:20.073Z,39.48
2022-08-29T04:01:49.044Z,39.75
2022-08-29T04:04:31.806Z,39.63
2022-08-29T04:07:00.894Z,39.85
2022-08-29T04:09:31.353Z,40.35
2022-08-29T04:12:00.623Z,40.06
2022-08-29T04:14:29.708Z,40.07
2022-08-29T04:16:58.299Z,39.84
2022-08-29T04:19:26.679Z,39.99
2022-08-29T04:21:55.192Z,40.02
2022-08-29T04:24:23.900Z,39.56
2022-08-29T04:26:53.845Z,39.94
2022-08-29T04:29:22.293Z,39.90
2022-08-29T04:31:50.784Z,39.83
2022-08-29T04:34:20.952Z,39.89
2022-08-29T04:36:49.622Z,39.92
2022-08-29T04:39:18.973Z,40.12
2022-08-29T04:41:47.460Z,40.23
2022-08-29T04:44:17.236Z,40.25
2022-08-29T04:46:45.702Z,40.25
2022-08-29T04:49:14.117Z,40.25
2022-08-29T04:51:42.567Z,40.29
2022-08-29T04:54:11.119Z,40.01
2022-08-29T04:56:44.368Z,40.26
2022-08-29T04:59:18.891Z,39.98
2022-08-29T05:01:49.054Z,39.89
2022-08-29T05:04:17.678Z,40.00
2022-08-29T05:06:46.116Z,39.60
2022-08-29T05:09:15.326Z,39.64
2022-08-29T05:11:43.978Z,39.91
2022-08-29T05:14:12.481Z,39.76
2022-08-29T05:16:42.507Z,40.21
2022-08-29T05:19:11.777Z,40.05
2022-08-29T05:21:41.902Z,40.20
2022-08-29T05:24:13.236Z,40.16
2022-08-29T05:26:44.083Z,40.19
2022-08-29T05:29:13.627Z,39.90
2022-08-29T05:31:45.587Z,39.97
2022-08-29T05:34:34.177Z,39.97
2022-08-29T05:37:03.490Z,39.90
2022-08-29T05:39:31.925Z,39.92
2022-08-29T05:42:00.951Z,40.25
2022-08-29T05:44:35.258Z,40.08
2022-08-29T05:47:06.874Z,40.31
2022-08-29T05:49:37.505Z,40.86
2022-08-29T05:52:06.552Z,41.11
2022-08-29T05:54:36.834Z,41.04
2022-08-29T05:57:06.799Z,40.74
2022-08-29T05:59:35.477Z,40.89
2022-08-29T06:02:05.764Z,40.78
2022-08-29T06:04:34.233Z,41.01
2022-08-29T06:07:02.780Z,41.04
2022-08-29T06:09:31.253Z,41.07
2022-08-29T06:11:59.874Z,41.32
2022-08-29T06:14:28.994Z,41.17
2022-08-29T06:16:57.412Z,41.26
2022-08-29T06:19:29.315Z,41.15
2022-08-29T06:21:57.962Z,40.58
2022-08-29T06:24:26.440Z,40.89
2022-08-29T06:26:54.903Z,41.39
2022-08-29T06:29:23.491Z,41.64
2022-08-29T06:31:51.933Z,41.69
2022-08-29T06:34:20.495Z,41.59
2022-08-29T06:36:51.382Z,41.60
2022-08-29T06:39:20.048Z,41.50
2022-08-29T06:41:48.972Z,41.49
2022-08-29T06:44:17.431Z,41.26
2022-08-29T06:46:49.391Z,41.38
2022-08-29T06:49:20.284Z,41.19
2022-08-29T06:51:57.630Z,41.15
2022-08-29T06:54:29.583Z,41.11
2022-08-29T06:57:00.018Z,41.09
2022-08-29T06:59:28.884Z,41.30
2022-08-29T07:01:57.531Z,41.00
2022-08-29T07:04:26.767Z,41.15
2022-08-29T07:06:56.776Z,41.13
2022-08-29T07:09:26.232Z,41.15
2022-08-29T07:11:55.103Z,40.67
2022-08-29T07:14:23.795Z,41.15
2022-08-29T07:16:52.302Z,40.83
2022-08-29T07:19:20.735Z,40.42
2022-08-29T07:21:49.647Z,40.52
2022-08-29T07:24:23.001Z,40.16
2022-08-29T07:26:53.775Z,40.44
2022-08-29T07:29:23.147Z,40.07
2022-08-29T07:31:51.665Z,39.86
2022-08-29T07:34:21.002Z,40.13
2022-08-29T07:36:49.736Z,39.76
2022-08-29T07:39:20.829Z,40.24
2022-08-29T07:41:49.796Z,39.91
2022-08-29T07:44:19.678Z,39.30
2022-08-29T07:46:48.114Z,39.34
2022-08-29T07:49:16.602Z,38.86
2022-08-29T07:51:45.058Z,38.83
2022-08-29T07:54:16.908Z,38.01
2022-08-29T07:56:48.920Z,37.74
2022-08-29T07:59:19.421Z,37.84
2022-08-29T08:01:48.163Z,37.66
2022-08-29T08:04:16.805Z,36.78
2022-08-29T08:06:48.188Z,35.34
2022-08-29T08:09:17.539Z,35.46
2022-08-29T08:11:47.459Z,35.58
2022-08-29T08:14:16.237Z,35.21
2022-08-29T08:16:44.878Z,34.67
2022-08-29T08:19:14.247Z,34.48
2022-08-29T08:21:49.963Z,34.90
2022-08-29T08:24:19.994Z,34.27
2022-08-29T08:26:50.527Z,34.38
2022-08-29T08:29:19.287Z,34.37
2022-08-29T08:31:50.360Z,34.17
2022-08-29T08:34:20.112Z,34.22
2022-08-29T08:36:48.784Z,34.24
2022-08-29T08:39:17.344Z,34.37
2022-08-29T08:41:54.980Z,33.87
2022-08-29T08:44:44.398Z,34.19
2022-08-29T08:47:15.821Z,33.98
2022-08-29T08:49:51.364Z,34.03
2022-08-29T08:52:23.594Z,34.14
2022-08-29T08:55:03.174Z,33.82
2022-08-29T08:57:40.075Z,33.78
2022-08-29T09:00:11.231Z,33.54
2022-08-29T09:02:52.068Z,33.38
2022-08-29T09:05:36.242Z,33.54
2022-08-29T09:08:15.043Z,33.59
2022-08-29T09:10:58.080Z,33.49
2022-08-29T09:13:39.471Z,33.96
2022-08-29T09:16:15.173Z,34.77
2022-08-29T09:18:52.718Z,34.92
2022-08-29T09:21:41.668Z,35.28
2022-08-29T09:24:16.989Z,36.04
2022-08-29T09:26:45.388Z,36.29
2022-08-29T09:29:21.236Z,36.45
2022-08-29T09:32:07.428Z,36.58
2022-08-29T09:35:04.381Z,36.76
2022-08-29T09:37:31.378Z,36.88
2022-08-29T09:40:03.797Z,36.59
2022-08-29T09:42:36.029Z,36.32
2022-08-29T09:45:17.731Z,36.25
2022-08-29T09:47:46.664Z,35.90
2022-08-29T09:50:24.706Z,35.68
2022-08-29T09:52:56.278Z,35.61
2022-08-29T09:55:32.233Z,35.56
2022-08-29T09:58:05.164Z,35.12
2022-08-29T10:00:38.186Z,34.78
2022-08-29T10:03:12.181Z,34.25
2022-08-29T10:05:44.613Z,34.10
2022-08-29T10:08:29.559Z,34.46
2022-08-29T10:11:00.992Z,33.75
2022-08-29T10:13:36.472Z,33.34
2022-08-29T10:16:17.706Z,33.25
2022-08-29T10:18:51.465Z,33.20
2022-08-29T10:21:31.904Z,33.50
2022-08-29T10:24:29.935Z,33.76
2022-08-29T10:27:06.443Z,33.59
2022-08-29T10:29:46.675Z,33.01
2022-08-29T10:32:32.244Z,33.69
2022-08-29T10:35:08.718Z,33.32
2022-08-29T10:37:49.758Z,32.85
2022-08-29T10:40:26.103Z,32.59
2022-08-29T10:43:28.185Z,31.98
2022-08-29T10:46:09.628Z,32.13
2022-08-29T10:48:46.296Z,31.37
2022-08-29T10:51:22.969Z,30.78
2022-08-29T10:53:58.638Z,30.56
2022-08-29T10:56:34.413Z,29.49
2022-08-29T10:59:10.159Z,29.23
2022-08-29T11:01:43.615Z,28.05
2022-08-29T11:04:21.706Z,27.96
2022-08-29T11:06:58.134Z,28.46
2022-08-29T11:09:30.610Z,28.55
2022-08-29T11:12:09.373Z,29.12
2022-08-29T11:14:44.985Z,29.71
2022-08-29T11:17:16.514Z,30.75
2022-08-29T11:19:59.287Z,32.45
2022-08-29T11:22:32.579Z,33.34
2022-08-29T11:25:07.857Z,33.54
2022-08-29T11:27:45.186Z,33.91
2022-08-29T11:30:20.530Z,33.74
2022-08-29T11:33:00.622Z,34.07
2022-08-29T11:35:42.106Z,34.96
2022-08-29T11:39:04.730Z,35.19
2022-08-29T11:41:36.637Z,35.46
2022-08-29T11:44:14.436Z,36.00
2022-08-29T11:46:48.877Z,35.69
2022-08-29T11:49:27.264Z,35.83
2022-08-29T11:52:00.986Z,35.21
2022-08-29T11:54:56.004Z,36.03
2022-08-29T11:57:48.034Z,36.84
2022-08-29T12:00:39.784Z,36.89
2022-08-29T12:03:48.677Z,37.75
2022-08-29T12:06:46.628Z,38.49
2022-08-29T12:09:44.521Z,37.97
2022-08-29T12:12:35.726Z,38.38
2022-08-29T12:15:39.061Z,38.73
2022-08-29T12:18:42.943Z,39.48
2022-08-29T12:21:45.710Z,40.11
2022-08-29T12:24:38.233Z,40.13
2022-08-29T12:27:06.752Z,39.67
2022-08-29T12:29:44.964Z,40.59
2022-08-29T12:32:40.301Z,40.55
2022-08-29T12:35:24.496Z,40.62
2022-08-29T12:38:05.699Z,39.56
2022-08-29T12:40:50.511Z,39.52
2022-08-29T12:43:37.454Z,39.52
2022-08-29T12:46:14.162Z,39.86
2022-08-29T12:48:46.269Z,39.65
2022-08-29T12:51:34.823Z,40.20
2022-08-29T12:54:03.433Z,40.62
2022-08-29T12:56:34.604Z,40.72
2022-08-29T12:59:06.096Z,40.80
2022-08-29T13:01:38.178Z,40.88
2022-08-29T13:04:14.875Z,41.25
2022-08-29T13:06:55.779Z,40.63
2022-08-29T13:09:32.980Z,41.70
2022-08-29T13:12:12.385Z,41.17
2022-08-29T13:15:07.105Z,41.07
2022-08-29T13:17:37.841Z,40.91
2022-08-29T13:20:46.107Z,41.48
2022-08-29T13:23:22.124Z,41.64
2022-08-29T13:25:56.435Z,41.72
2022-08-29T13:28:31.851Z,42.22
2022-08-29T13:31:29.798Z,41.96
2022-08-29T13:34:20.953Z,42.05
2022-08-29T13:37:02.564Z,41.15
2022-08-29T13:39:45.935Z,41.47
2022-08-29T13:42:37.413Z,41.26
2022-08-29T18:26:00.523Z,49.25
2022-08-29T18:28:29.803Z,49.29
2022-08-29T18:30:59.371Z,49.45
2022-08-29T18:33:44.319Z,49.57
2022-08-29T18:36:17.533Z,49.53
2022-08-29T18:38:45.992Z,49.39
2022-08-29T18:41:15.802Z,49.43
2022-08-29T18:43:44.823Z,49.77
2022-08-29T18:46:13.355Z,50.01
2022-08-29T18:48:44.933Z,50.10
2022-08-29T18:51:13.817Z,50.50
2022-08-29T18:53:42.305Z,50.60
2022-08-29T18:56:10.805Z,50.58
2022-08-29T18:58:44.357Z,50.62
2022-08-29T19:01:15.571Z,50.78
2022-08-29T19:03:55.306Z,50.82
2022-08-29T19:06:26.132Z,50.94
2022-08-29T19:08:55.200Z,50.63
2022-08-29T19:11:23.883Z,50.67
2022-08-29T19:13:54.510Z,50.91
2022-08-29T19:16:25.116Z,51.09
2022-08-29T19:18:54.105Z,51.14
2022-08-29T19:21:21.539Z,51.33
2022-08-29T19:23:52.176Z,51.50
2022-08-29T19:26:24.096Z,51.39
2022-08-29T19:28:56.678Z,51.39
2022-08-29T19:31:29.312Z,51.66
2022-08-29T19:33:58.911Z,51.66
2022-08-29T19:36:27.734Z,51.35
2022-08-29T19:38:56.227Z,51.65
2022-08-29T19:41:25.079Z,51.96
2022-08-29T19:43:55.474Z,52.33
2022-08-29T19:46:24.938Z,52.44
2022-08-29T19:48:54.178Z,52.38
2022-08-29T19:51:25.394Z,52.39
2022-08-29T19:53:57.466Z,52.38
2022-08-29T19:56:26.783Z,52.87
2022-08-29T19:58:57.610Z,53.21
2022-08-29T20:01:26.682Z,53.01
2022-08-29T20:03:55.535Z,53.56
2022-08-29T20:06:24.351Z,53.54
2022-08-29T20:08:53.333Z,53.86
2022-08-29T20:11:26.310Z,53.97
2022-08-29T20:13:57.919Z,54.09
2022-08-29T20:16:29.519Z,54.65
2022-08-29T20:18:59.025Z,54.54
2022-08-29T20:21:28.744Z,54.78
2022-08-29T20:23:58.402Z,54.81
2022-08-29T20:26:30.312Z,55.31
2022-08-29T20:29:01.774Z,55.46
2022-08-29T20:31:30.743Z,55.96
2022-08-29T20:33:59.466Z,55.90
2022-08-29T20:36:45.983Z,56.06
2022-08-29T20:39:16.593Z,56.36
2022-08-29T20:41:49.285Z,56.48
2022-08-29T20:44:20.534Z,56.57
2022-08-29T20:46:49.457Z,56.98
2022-08-29T20:49:21.442Z,56.68
2022-08-29T20:51:50.879Z,56.61
2022-08-29T20:54:22.287Z,56.17
2022-08-29T20:56:51.130Z,56.24
2022-08-29T20:59:23.524Z,56.62
2022-08-29T21:01:55.622Z,56.73
2022-08-29T21:04:41.762Z,56.31
2022-08-29T21:07:12.630Z,56.08
2022-08-29T21:09:43.394Z,56.74
2022-08-29T21:12:14.358Z,56.93
2022-08-29T21:14:44.234Z,57.63
2022-08-29T21:17:13.673Z,57.68
2022-08-29T21:19:43.182Z,57.56
2022-08-29T21:22:13.797Z,57.79
2022-08-29T21:24:42.710Z,58.15
2022-08-29T21:27:11.459Z,59.52
2022-08-29T21:29:40.575Z,59.47
2022-08-29T21:32:10.461Z,59.68
2022-08-29T21:34:38.959Z,59.67
2022-08-29T21:37:07.350Z,60.13
2022-08-29T21:39:36.314Z,60.16
2022-08-29T21:42:05.177Z,60.47
2022-08-29T21:44:33.682Z,60.85
2022-08-29T21:47:02.707Z,61.23
2022-08-29T21:49:32.683Z,61.27
2022-08-29T21:52:01.444Z,60.70
2022-08-29T21:54:30.005Z,61.27
2022-08-29T21:56:58.564Z,61.02
2022-08-29T21:59:28.184Z,61.28
2022-08-29T22:01:56.923Z,61.26
2022-08-29T22:04:29.039Z,61.34
2022-08-29T22:07:00.248Z,61.61
2022-08-29T22:09:30.207Z,61.70
2022-08-29T22:11:59.325Z,62.15
2022-08-29T22:14:42.137Z,62.42
2022-08-29T22:17:10.604Z,62.37
2022-08-29T22:19:39.665Z,62.86
2022-08-29T22:22:10.862Z,62.92
2022-08-29T22:24:39.246Z,63.12
2022-08-29T22:27:07.729Z,63.19
2022-08-29T22:29:37.585Z,62.84
2022-08-29T22:32:06.386Z,62.96
2022-08-29T22:34:34.993Z,63.11
2022-08-29T22:37:03.589Z,63.50
2022-08-29T22:39:33.511Z,63.36
2022-08-29T22:42:01.883Z,63.71
2022-08-29T22:47:20.431Z,63.84
2022-08-29T22:49:48.899Z,63.98
2022-08-29T22:52:17.415Z,63.97
2022-08-29T22:54:47.931Z,64.46
2022-08-29T22:57:18.365Z,64.65
2022-08-29T22:59:49.333Z,64.68
2022-08-29T23:02:19.678Z,64.83
2022-08-29T23:04:49.480Z,65.12
2022-08-29T23:07:18.168Z,64.99
2022-08-29T23:09:48.077Z,65.50
2022-08-29T23:12:16.621Z,65.68
2022-08-29T23:14:46.739Z,65.39
2022-08-29T23:17:16.200Z,65.87
2022-08-29T23:19:45.227Z,65.52
2022-08-29T23:22:14.089Z,65.45
2022-08-29T23:24:58.313Z,65.16
2022-08-29T23:27:30.282Z,65.63
2022-08-29T23:29:59.010Z,65.40
2022-08-29T23:32:28.192Z,65.36
2022-08-29T23:34:56.758Z,65.92
2022-08-29T23:37:25.309Z,65.91
2022-08-29T23:39:53.862Z,65.78
2022-08-29T23:42:22.483Z,65.64
2022-08-29T23:44:52.267Z,65.49
2022-08-29T23:47:20.776Z,65.80
2022-08-29T23:49:49.261Z,66.23
2022-08-29T23:52:18.076Z,66.32
2022-08-29T23:54:46.431Z,66.13
2022-08-29T23:57:14.970Z,66.33
